createdAt,value
2022-11-30T00:01:58.239Z,54.20
2022-11-30T00:04:36.478Z,60.13
2022-11-30T00:07:09.531Z,50.83
2022-11-30T00:09:39.426Z,60.03
2022-11-30T00:12:21.862Z,55.23
2022-11-30T00:14:55.421Z,58.23
2022-11-30T00:17:28.047Z,58.47
2022-11-30T00:19:56.531Z,53.43
2022-11-30T00:22:31.442Z,54.90
2022-11-30T00:25:04.738Z,57.70
2022-11-30T00:27:44.934Z,59.63
2022-11-30T00:30:24.159Z,54.17
2022-11-30T00:32:55.766Z,61.30
2022-11-30T00:35:27.723Z,54.30
2022-11-30T00:37:55.977Z,60.40
2022-11-30T00:40:25.904Z,59.43
2022-11-30T00:43:11.367Z,59.03
2022-11-30T00:45:52.076Z,60.47
2022-11-30T00:48:26.056Z,57.20
2022-11-30T00:51:04.824Z,57.67
2022-11-30T00:53:35.772Z,59.13
2022-11-30T00:56:06.849Z,61.00
2022-11-30T00:58:41.626Z,60.00
2022-11-30T01:01:20.915Z,63.63
2022-11-30T01:03:58.630Z,59.77
2022-11-30T01:06:47.299Z,60.50
2022-11-30T01:09:15.865Z,60.93
2022-11-30T01:11:57.186Z,58.97
2022-11-30T01:14:43.028Z,57.00
2022-11-30T01:17:21.962Z,62.67
2022-11-30T01:19:55.395Z,58.90
2022-11-30T01:22:28.381Z,62.53
2022-11-30T01:24:56.484Z,64.60
2022-11-30T01:27:27.613Z,59.63
2022-11-30T01:30:00.465Z,63.17
2022-11-30T01:32:34.050Z,59.27
2022-11-30T01:35:12.182Z,65.20
2022-11-30T01:37:47.767Z,66.73
2022-11-30T01:40:25.348Z,72.10
2022-11-30T01:42:56.470Z,61.33
2022-11-30T01:45:30.027Z,69.87
2022-11-30T01:48:00.616Z,59.57
2022-11-30T01:50:31.848Z,65.93
2022-11-30T01:53:00.618Z,64.87
2022-11-30T01:55:31.385Z,62.73
2022-11-30T01:58:02.317Z,66.70
2022-11-30T02:00:31.989Z,64.73
2022-11-30T02:03:02.973Z,71.47
2022-11-30T02:05:32.735Z,63.93
2022-11-30T02:08:13.277Z,66.57
2022-11-30T02:10:45.197Z,71.70
2022-11-30T02:13:37.668Z,67.43
2022-11-30T02:16:20.309Z,70.37
2022-11-30T02:18:58.321Z,71.40
2022-11-30T02:24:42.520Z,70.30
2022-11-30T02:27:25.084Z,72.07
2022-11-30T02:30:04.710Z,72.60
2022-11-30T02:32:36.388Z,75.70
2022-11-30T02:35:06.691Z,78.60
2022-11-30T02:37:39.493Z,70.30
2022-11-30T02:40:11.151Z,64.87
2022-11-30T02:42:47.236Z,70.80
2022-11-30T02:45:28.391Z,69.47
2022-11-30T02:48:05.838Z,74.17
2022-11-30T02:50:43.340Z,70.43
2022-11-30T02:53:13.957Z,70.93
2022-11-30T02:55:51.809Z,72.63
2022-11-30T02:58:24.778Z,72.23
2022-11-30T03:01:10.037Z,66.33
2022-11-30T03:03:38.890Z,72.93
2022-11-30T03:06:19.777Z,76.07
2022-11-30T03:08:50.522Z,79.57
2022-11-30T03:11:28.804Z,72.23
2022-11-30T03:14:00.206Z,73.53
2022-11-30T03:16:41.943Z,75.80
2022-11-30T03:19:10.701Z,74.37
2022-11-30T03:21:52.359Z,67.33
2022-11-30T03:24:30.620Z,71.90
2022-11-30T03:26:58.646Z,67.20
2022-11-30T03:29:27.131Z,67.00
2022-11-30T03:31:56.553Z,73.93
2022-11-30T03:34:26.574Z,71.30
2022-11-30T03:36:54.806Z,72.77
2022-11-30T03:39:23.613Z,68.80
2022-11-30T03:41:51.696Z,72.70
2022-11-30T03:44:19.955Z,68.87
2022-11-30T03:46:48.101Z,72.03
2022-11-30T03:49:17.571Z,64.90
2022-11-30T03:51:45.680Z,70.87
2022-11-30T03:54:14.036Z,67.73
2022-11-30T03:56:42.119Z,76.80
2022-11-30T03:59:10.155Z,68.63
2022-11-30T04:01:41.111Z,71.10
2022-11-30T04:04:09.329Z,69.67
2022-11-30T04:06:38.767Z,69.47
2022-11-30T04:09:06.850Z,70.00
2022-11-30T04:11:35.929Z,72.73
2022-11-30T04:14:04.108Z,76.93
2022-11-30T04:16:32.322Z,68.10
2022-11-30T04:19:00.610Z,73.47
2022-11-30T04:21:28.656Z,72.17
2022-11-30T04:23:58.060Z,69.90
2022-11-30T04:26:26.177Z,67.53
2022-11-30T04:28:54.576Z,68.77
2022-11-30T04:31:22.659Z,69.67
2022-11-30T04:33:54.295Z,75.90
2022-11-30T04:36:22.663Z,75.77
2022-11-30T04:38:50.968Z,73.33
2022-11-30T04:41:20.491Z,71.07
2022-11-30T04:43:48.530Z,70.00
2022-11-30T04:46:16.686Z,76.40
2022-11-30T04:48:44.821Z,68.37
2022-11-30T04:51:12.934Z,70.33
2022-11-30T04:53:40.990Z,77.43
2022-11-30T04:56:09.880Z,74.77
2022-11-30T04:58:39.881Z,73.80
2022-11-30T05:01:08.727Z,71.57
2022-11-30T05:03:37.018Z,75.47
2022-11-30T05:06:05.455Z,72.50
2022-11-30T05:08:33.566Z,74.63
2022-11-30T05:11:01.641Z,71.97
2022-11-30T05:13:29.753Z,75.77
2022-11-30T05:15:59.219Z,78.13
2022-11-30T05:18:27.457Z,73.53
2022-11-30T05:20:55.553Z,75.70
2022-11-30T05:23:23.601Z,74.23
2022-11-30T05:25:51.718Z,70.40
2022-11-30T05:28:20.084Z,73.90
2022-11-30T05:30:48.225Z,78.40
2022-11-30T05:33:17.690Z,71.77
2022-11-30T05:35:45.764Z,67.40
2022-11-30T05:38:13.802Z,75.77
2022-11-30T05:40:41.821Z,76.83
2022-11-30T05:43:10.158Z,79.10
2022-11-30T05:45:38.201Z,77.80
2022-11-30T05:48:06.994Z,73.63
2022-11-30T05:50:36.493Z,82.93
2022-11-30T05:53:04.628Z,80.57
2022-11-30T05:55:32.801Z,79.67
2022-11-30T05:58:01.028Z,85.60
2022-11-30T06:00:29.446Z,77.30
2022-11-30T06:02:58.706Z,80.57
2022-11-30T06:05:27.480Z,80.60
2022-11-30T06:07:56.970Z,77.17
2022-11-30T06:10:27.316Z,81.33
2022-11-30T06:12:55.348Z,77.20
2022-11-30T06:15:23.446Z,77.03
2022-11-30T06:17:51.487Z,76.67
2022-11-30T06:20:19.578Z,77.80
2022-11-30T06:22:47.908Z,76.90
2022-11-30T06:25:17.439Z,73.10
2022-11-30T06:27:46.230Z,75.27
2022-11-30T06:30:18.582Z,72.03
2022-11-30T06:32:46.676Z,76.73
2022-11-30T06:35:22.349Z,70.33
2022-11-30T06:37:58.386Z,77.43
2022-11-30T06:40:29.262Z,74.57
2022-11-30T06:43:07.613Z,73.63
2022-11-30T06:45:38.976Z,72.43
2022-11-30T06:48:11.160Z,65.40
2022-11-30T06:50:50.226Z,69.93
2022-11-30T06:53:25.263Z,69.50
2022-11-30T06:56:03.067Z,66.80
2022-11-30T06:58:40.610Z,73.87
2022-11-30T07:01:13.464Z,78.03
2022-11-30T07:03:50.845Z,74.77
2022-11-30T07:06:21.990Z,65.87
2022-11-30T07:08:51.849Z,76.70
2022-11-30T07:11:24.289Z,74.20
2022-11-30T07:13:54.598Z,65.80
2022-11-30T07:16:24.481Z,75.70
2022-11-30T07:18:56.000Z,69.70
2022-11-30T07:21:31.613Z,79.47
2022-11-30T07:24:16.896Z,74.37
2022-11-30T07:26:47.699Z,66.63
2022-11-30T07:29:16.504Z,72.53
2022-11-30T07:31:44.994Z,71.17
2022-11-30T07:34:23.217Z,65.00
2022-11-30T07:36:59.749Z,61.70
2022-11-30T07:39:28.668Z,66.23
2022-11-30T07:42:08.275Z,68.60
2022-11-30T07:44:43.910Z,65.83
2022-11-30T07:47:13.849Z,66.03
2022-11-30T07:49:50.517Z,67.20
2022-11-30T07:52:24.310Z,68.30
2022-11-30T07:55:08.880Z,65.93
2022-11-30T07:57:40.729Z,66.50
2022-11-30T08:00:17.789Z,63.33
2022-11-30T08:02:52.310Z,72.33
2022-11-30T08:05:29.988Z,65.00
2022-11-30T08:08:02.532Z,66.30
2022-11-30T08:10:32.826Z,68.80
2022-11-30T08:13:05.200Z,65.83
2022-11-30T08:15:34.798Z,64.60
2022-11-30T08:18:07.057Z,63.70
2022-11-30T08:20:49.784Z,66.50
2022-11-30T08:23:21.659Z,65.60
2022-11-30T08:25:50.201Z,69.13
2022-11-30T08:28:28.903Z,64.63
2022-11-30T08:31:01.210Z,69.93
2022-11-30T08:33:39.621Z,70.93
2022-11-30T08:36:10.173Z,68.87
2022-11-30T08:38:43.694Z,68.93
2022-11-30T08:41:17.885Z,70.23
2022-11-30T08:43:53.052Z,67.80
2022-11-30T08:49:25.231Z,70.67
2022-11-30T08:54:48.086Z,61.67
2022-11-30T08:57:20.494Z,62.47
2022-11-30T08:59:52.464Z,76.30
2022-11-30T09:02:21.879Z,68.33
2022-11-30T09:04:56.305Z,71.83
2022-11-30T09:07:30.661Z,64.83
2022-11-30T09:10:01.906Z,61.70
2022-11-30T09:12:34.448Z,66.67
2022-11-30T09:15:12.883Z,68.27
2022-11-30T09:17:42.682Z,61.13
2022-11-30T09:20:18.995Z,69.63
2022-11-30T09:22:57.739Z,69.20
2022-11-30T09:25:27.332Z,62.93
2022-11-30T09:28:06.776Z,62.33
2022-11-30T09:30:50.492Z,61.30
2022-11-30T09:33:25.505Z,57.00
2022-11-30T09:35:58.175Z,59.47
2022-11-30T09:38:29.657Z,61.70
2022-11-30T09:41:00.390Z,64.00
2022-11-30T09:43:46.588Z,70.20
2022-11-30T09:46:31.985Z,59.27
2022-11-30T09:49:06.492Z,54.40
2022-11-30T09:51:43.821Z,63.73
2022-11-30T09:54:14.612Z,64.10
2022-11-30T09:56:45.539Z,62.13
2022-11-30T09:59:26.691Z,56.87
2022-11-30T10:02:00.001Z,63.20
2022-11-30T10:04:30.970Z,64.73
2022-11-30T10:07:07.522Z,58.90
2022-11-30T10:10:23.379Z,67.43
2022-11-30T10:12:56.568Z,61.83
2022-11-30T10:15:39.529Z,63.50
2022-11-30T10:18:16.968Z,58.73
2022-11-30T10:20:54.891Z,58.33
2022-11-30T10:23:58.728Z,59.53
2022-11-30T10:26:36.307Z,54.17
2022-11-30T10:29:15.850Z,61.23
2022-11-30T10:31:54.592Z,51.10
2022-11-30T10:34:42.778Z,57.73
2022-11-30T10:37:19.121Z,55.27
2022-11-30T10:40:02.002Z,53.27
2022-11-30T10:42:43.142Z,55.87
2022-11-30T10:45:21.755Z,48.83
2022-11-30T10:48:04.811Z,57.20
2022-11-30T10:50:41.497Z,53.30
2022-11-30T10:53:11.872Z,54.10
2022-11-30T10:55:44.520Z,47.27
2022-11-30T10:58:33.370Z,47.43
2022-11-30T11:01:10.991Z,54.60
2022-11-30T11:03:39.723Z,51.00
2022-11-30T11:06:18.731Z,52.60
2022-11-30T11:08:56.448Z,46.77
2022-11-30T11:11:39.488Z,49.60
2022-11-30T11:14:19.591Z,46.23
2022-11-30T11:17:05.486Z,48.80
2022-11-30T11:19:40.465Z,43.30
2022-11-30T11:22:27.502Z,52.80
2022-11-30T11:25:14.902Z,48.83
2022-11-30T11:27:45.202Z,48.57
2022-11-30T11:30:36.505Z,45.70
2022-11-30T11:33:07.078Z,49.43
2022-11-30T11:35:41.830Z,46.70
2022-11-30T11:38:26.357Z,48.30
2022-11-30T11:41:00.639Z,46.37
2022-11-30T11:43:31.794Z,47.93
2022-11-30T11:46:15.154Z,50.43
2022-11-30T11:49:01.913Z,46.00
2022-11-30T11:51:32.549Z,40.40
2022-11-30T11:54:22.109Z,40.40
2022-11-30T11:56:57.965Z,39.23
2022-11-30T11:59:42.255Z,41.50
2022-11-30T12:02:23.723Z,39.03
2022-11-30T12:04:56.836Z,42.70
2022-11-30T12:07:39.858Z,43.07
2022-11-30T12:10:51.174Z,41.03
2022-11-30T12:13:19.059Z,34.37
2022-11-30T12:16:06.486Z,36.33
2022-11-30T12:18:46.061Z,40.80
2022-11-30T12:21:20.133Z,34.47
2022-11-30T12:24:07.798Z,29.87
2022-11-30T12:26:59.093Z,28.80
2022-11-30T12:29:36.411Z,26.63
2022-11-30T12:32:18.899Z,28.90
2022-11-30T12:35:03.771Z,25.87
2022-11-30T12:37:47.281Z,29.60
2022-11-30T12:40:30.464Z,32.90
2022-11-30T12:43:15.359Z,31.50
2022-11-30T12:45:48.532Z,32.93
2022-11-30T12:48:29.984Z,24.97
2022-11-30T12:51:07.371Z,28.07
2022-11-30T12:53:43.687Z,31.83
2022-11-30T12:56:26.428Z,28.37
2022-11-30T12:59:18.799Z,28.30
2022-11-30T13:02:18.243Z,29.20
2022-11-30T13:04:57.751Z,28.77
2022-11-30T13:07:33.482Z,31.60
2022-11-30T13:10:15.530Z,26.97
2022-11-30T13:12:54.693Z,30.20
2022-11-30T13:15:29.743Z,27.03
2022-11-30T13:18:00.886Z,33.50
2022-11-30T13:20:39.793Z,25.77
2022-11-30T13:23:13.594Z,25.60
2022-11-30T13:28:51.864Z,26.60
2022-11-30T13:31:24.423Z,32.73
2022-11-30T13:34:08.143Z,29.77
2022-11-30T13:36:51.687Z,28.93
2022-11-30T13:39:25.659Z,25.97
2022-11-30T13:42:34.478Z,29.80
2022-11-30T13:45:31.583Z,30.23
2022-11-30T13:48:23.299Z,27.20
2022-11-30T13:50:59.934Z,30.90
2022-11-30T13:53:39.507Z,27.40
2022-11-30T13:56:34.273Z,25.13
2022-11-30T13:59:41.543Z,26.77
2022-11-30T14:03:01.646Z,23.83
2022-11-30T14:05:47.241Z,25.60
2022-11-30T14:08:40.286Z,26.90
2022-11-30T14:11:55.325Z,28.43
2022-11-30T14:14:51.367Z,26.37
2022-11-30T14:17:33.990Z,24.30
2022-11-30T14:20:16.476Z,27.10
2022-11-30T14:22:51.110Z,29.53
2022-11-30T14:25:22.041Z,27.70
2022-11-30T14:27:58.021Z,28.50
2022-11-30T14:30:28.429Z,24.03
2022-11-30T14:33:04.357Z,26.83
2022-11-30T14:35:41.550Z,21.00
2022-11-30T14:38:29.711Z,20.23
2022-11-30T14:40:59.622Z,19.73
2022-11-30T14:43:33.552Z,21.23
2022-11-30T14:46:06.514Z,24.30
2022-11-30T14:48:53.402Z,24.40
2022-11-30T14:51:22.669Z,23.70
2022-11-30T14:53:58.854Z,22.90
2022-11-30T14:56:32.976Z,28.93
2022-11-30T14:59:19.967Z,24.73
2022-11-30T15:01:48.385Z,24.80
2022-11-30T15:04:23.623Z,25.17
2022-11-30T15:06:54.385Z,27.87
2022-11-30T15:09:35.913Z,24.10
2022-11-30T15:12:06.702Z,25.87
2022-11-30T15:14:40.695Z,26.57
2022-11-30T15:17:23.204Z,27.27
2022-11-30T15:19:54.238Z,27.37
2022-11-30T15:22:31.533Z,28.57
2022-11-30T15:25:05.661Z,29.53
2022-11-30T15:27:33.748Z,30.03
2022-11-30T15:30:11.049Z,28.20
2022-11-30T15:32:46.494Z,21.00
2022-11-30T15:35:24.135Z,25.80
2022-11-30T15:37:56.778Z,24.70
2022-11-30T15:40:41.644Z,24.43
2022-11-30T15:43:23.718Z,28.17
2022-11-30T15:46:01.612Z,25.53
2022-11-30T15:48:33.279Z,24.40
2022-11-30T15:51:13.379Z,23.57
2022-11-30T15:53:58.310Z,20.97
2022-11-30T15:56:36.596Z,24.47
2022-11-30T15:59:07.757Z,23.40
2022-11-30T16:02:03.763Z,23.03
2022-11-30T16:05:14.606Z,30.00
2022-11-30T16:07:54.149Z,27.40
2022-11-30T16:10:32.191Z,20.10
2022-11-30T16:13:21.672Z,20.43
2022-11-30T16:16:04.388Z,23.20
2022-11-30T16:18:33.828Z,24.47
2022-11-30T16:21:12.191Z,24.53
2022-11-30T16:23:41.295Z,20.70
2022-11-30T16:26:36.094Z,23.40
2022-11-30T16:29:09.518Z,20.70
2022-11-30T16:31:44.477Z,29.23
2022-11-30T16:34:19.080Z,24.60
2022-11-30T16:36:51.599Z,22.20
2022-11-30T16:39:30.112Z,24.70
2022-11-30T16:42:06.742Z,19.63
2022-11-30T16:44:53.193Z,21.07
2022-11-30T16:47:28.330Z,21.60
2022-11-30T16:50:00.786Z,32.53
2022-11-30T16:52:40.840Z,24.10
2022-11-30T16:55:18.780Z,24.37
2022-11-30T16:57:49.855Z,25.93
2022-11-30T17:00:37.591Z,24.67
2022-11-30T17:03:20.342Z,24.37
2022-11-30T17:05:53.222Z,26.23
2022-11-30T17:08:22.568Z,32.70
2022-11-30T17:10:57.254Z,24.27
2022-11-30T17:13:27.757Z,31.07
2022-11-30T17:16:13.651Z,33.60
2022-11-30T17:18:47.202Z,29.53
2022-11-30T17:21:21.143Z,29.60
2022-11-30T17:23:52.748Z,29.53
2022-11-30T17:26:28.822Z,35.20
2022-11-30T17:29:07.736Z,35.47
2022-11-30T17:31:39.831Z,36.40
2022-11-30T17:34:17.945Z,38.13
2022-11-30T17:36:54.419Z,35.63
2022-11-30T17:39:25.041Z,34.57
2022-11-30T17:41:56.792Z,38.53
2022-11-30T17:44:33.241Z,39.60
2022-11-30T17:47:11.440Z,37.70
2022-11-30T17:49:44.865Z,37.20
2022-11-30T17:52:17.066Z,45.17
2022-11-30T17:54:50.579Z,39.33
2022-11-30T17:57:30.576Z,39.13
2022-11-30T18:00:07.082Z,44.07
2022-11-30T18:02:44.654Z,44.57
2022-11-30T18:05:23.173Z,38.80
2022-11-30T18:07:54.608Z,43.97
2022-11-30T18:10:33.353Z,45.13
2022-11-30T18:13:05.796Z,42.20
2022-11-30T18:15:44.986Z,46.97
2022-11-30T18:18:30.699Z,49.30
2022-11-30T18:21:10.167Z,49.03
2022-11-30T18:23:49.168Z,40.57
2022-11-30T18:26:32.502Z,40.77
2022-11-30T18:29:19.994Z,41.03
2022-11-30T18:31:52.607Z,49.30
2022-11-30T18:34:41.794Z,45.43
2022-11-30T18:37:46.340Z,42.77
2022-11-30T18:40:20.141Z,41.23
2022-11-30T18:43:30.555Z,42.90
2022-11-30T18:46:06.689Z,40.43
2022-11-30T18:48:37.922Z,42.43
2022-11-30T18:51:23.152Z,47.17
2022-11-30T18:54:02.931Z,52.70
2022-11-30T18:56:43.928Z,46.80
2022-11-30T18:59:23.931Z,61.13
2022-11-30T19:02:20.676Z,55.10
2022-11-30T19:05:03.491Z,61.93
2022-11-30T19:07:50.913Z,57.23
2022-11-30T19:10:30.534Z,71.10
2022-11-30T19:13:11.331Z,61.00
2022-11-30T19:15:43.758Z,60.00
2022-11-30T19:18:26.304Z,58.60
2022-11-30T19:21:13.345Z,60.90
2022-11-30T19:24:01.587Z,59.80
2022-11-30T19:26:33.231Z,59.67
2022-11-30T19:29:03.947Z,59.90
2022-11-30T19:31:36.788Z,59.27
2022-11-30T19:34:13.302Z,54.57
2022-11-30T19:36:43.538Z,58.80
2022-11-30T19:39:15.470Z,48.97
2022-11-30T19:41:45.763Z,49.30
2022-11-30T19:44:18.623Z,50.63
2022-11-30T19:46:49.634Z,56.47
2022-11-30T19:49:19.067Z,54.73
2022-11-30T19:51:52.090Z,54.50
2022-11-30T19:54:24.019Z,59.17
2022-11-30T19:57:00.159Z,53.47
2022-11-30T19:59:30.807Z,54.27
2022-11-30T20:01:59.773Z,56.23
2022-11-30T20:04:29.684Z,60.20
2022-11-30T20:07:02.164Z,56.50
2022-11-30T20:09:33.600Z,53.43
2022-11-30T20:12:05.910Z,58.50
2022-11-30T20:14:37.512Z,60.30
2022-11-30T20:17:15.585Z,59.00
2022-11-30T20:19:46.781Z,53.13
2022-11-30T20:22:17.211Z,68.83
2022-11-30T20:24:51.386Z,59.27
2022-11-30T20:27:24.268Z,59.63
2022-11-30T20:29:55.099Z,59.87
2022-11-30T20:32:29.107Z,58.27
2022-11-30T20:34:59.712Z,65.20
2022-11-30T20:37:29.829Z,66.93
2022-11-30T20:40:03.501Z,58.47
2022-11-30T20:42:34.213Z,61.20
2022-11-30T20:45:04.653Z,70.80
2022-11-30T20:47:35.244Z,60.50
2022-11-30T20:50:07.517Z,59.80
2022-11-30T20:52:38.506Z,64.50
2022-11-30T20:55:10.553Z,55.70
2022-11-30T20:57:40.858Z,52.50
2022-11-30T21:00:13.256Z,57.17
2022-11-30T21:02:43.325Z,65.73
2022-11-30T21:05:15.546Z,64.20
2022-11-30T21:07:45.418Z,56.57
2022-11-30T21:10:16.647Z,60.03
2022-11-30T21:12:45.738Z,67.93
2022-11-30T21:15:15.120Z,56.80
2022-11-30T21:17:43.682Z,66.10
2022-11-30T21:20:13.217Z,67.80
2022-11-30T21:22:41.574Z,62.10
2022-11-30T21:25:10.589Z,66.10
2022-11-30T21:27:40.871Z,60.07
2022-11-30T21:30:10.212Z,62.97
2022-11-30T21:32:38.727Z,58.43
2022-11-30T21:35:07.868Z,62.83
2022-11-30T21:37:36.096Z,53.43
2022-11-30T21:40:04.347Z,60.60
2022-11-30T21:42:32.834Z,64.23
2022-11-30T21:45:02.308Z,59.20
2022-11-30T21:47:31.796Z,55.53
2022-11-30T21:50:00.748Z,63.00
2022-11-30T21:52:29.098Z,60.23
2022-11-30T21:54:57.187Z,55.70
2022-11-30T21:57:25.235Z,67.60
2022-11-30T21:59:53.502Z,60.37
2022-11-30T22:02:23.089Z,61.97
2022-11-30T22:04:51.170Z,61.63
2022-11-30T22:07:31.757Z,65.47
2022-11-30T22:10:00.045Z,61.23
2022-11-30T22:12:28.189Z,62.90
2022-11-30T22:14:56.364Z,66.00
2022-11-30T22:17:25.821Z,65.67
2022-11-30T22:19:54.008Z,72.93
2022-11-30T22:22:22.233Z,66.90
2022-11-30T22:24:50.603Z,62.13
2022-11-30T22:27:18.715Z,61.33
2022-11-30T22:29:48.235Z,57.83
2022-11-30T22:32:16.648Z,63.73
2022-11-30T22:34:46.339Z,65.67
2022-11-30T22:37:14.519Z,59.70
2022-11-30T22:39:42.521Z,64.63
2022-11-30T22:42:10.938Z,61.70
2022-11-30T22:44:38.997Z,61.03
2022-11-30T22:47:07.119Z,64.80
2022-11-30T22:49:35.605Z,60.67
2022-11-30T22:52:05.306Z,62.37
2022-11-30T22:54:33.776Z,57.70
2022-11-30T22:57:01.876Z,61.97
2022-11-30T22:59:30.065Z,60.10
2022-11-30T23:01:58.168Z,58.80
2022-11-30T23:04:26.206Z,68.20
2022-11-30T23:06:54.619Z,62.10
2022-11-30T23:09:24.840Z,63.90
2022-11-30T23:11:53.163Z,63.13
2022-11-30T23:14:21.459Z,66.10
2022-11-30T23:16:49.630Z,63.47
2022-11-30T23:19:18.290Z,61.13
2022-11-30T23:21:46.515Z,67.67
2022-11-30T23:24:16.988Z,64.83
2022-11-30T23:26:46.485Z,67.27
2022-11-30T23:29:16.031Z,63.03
2022-11-30T23:31:45.232Z,67.87
2022-11-30T23:34:14.938Z,69.47
2022-11-30T23:36:43.120Z,71.90
2022-11-30T23:39:13.175Z,67.60
2022-11-30T23:41:41.649Z,65.03
2022-11-30T23:44:11.475Z,65.90
2022-11-30T23:46:39.920Z,69.17
2022-11-30T23:49:08.312Z,68.47
2022-11-30T23:51:36.656Z,68.17
2022-11-30T23:54:05.228Z,76.47
2022-11-30T23:56:33.410Z,67.63
2022-11-30T23:59:01.552Z,67.53
